VIDP/DEL METAR and TAF weather

Enter ICAO airport designator
Station Type Date Time Source
VIDP METAR 2021/09/20 04:00 UTC NOAA

VIDP 200400Z 10006KT 2500 BR FEW040 SCT100 30/28 Q1009 BECMG 3000 BR


Station Type Date Time Source
VIDP Decoded METAR 2021/09/20 04:00 UTC NOAA

New Delhi / Palam, India (VIDP) 28-34N 077-07E 233M
Sep 20, 2021 - 12:00 AM EDT / 2021.09.20 0400 UTC
Wind: from the E (100 degrees) at 7 MPH (6 KT):0
Visibility: 1 mile(s):0
Sky conditions: partly cloudy
Weather: mist
Temperature: 86 F (30 C)
Heat index: 104.7 F (40.4 C):1
Dew Point: 82 F (28 C)
Relative Humidity: 89%
Pressure (altimeter): 29.80 in. Hg (1009 hPa)
ob: VIDP 200400Z 10006KT 2500 BR FEW040 SCT100 30/28 Q1009 BECMG 3000 BR
cycle: 4

Station Type Date Time Source
VIDP TAF 2021/09/19 18:09 UTC NOAA

TAF VIDP 191700Z 1918/2024 14006KT 4000 BR FEW035 SCT100
BECMG 1923/2001 3200 BR
BECMG 2004/2006 15010KT 5000 HZ SCT030 BKN100
TEMPO 2008/2012 3000 -TSRA FEW035CB
BECMG 2016/2018 13006KT 3500 BR SCT030 BKN100

Example: see airport list